sensor_id;sensor_type;location;lat;lon;timestamp;temperature;humidity
5258;DHT22;2651;51.594;9.928;2023-09-07T00:00:22;18.30;99.90
5258;DHT22;2651;51.594;9.928;2023-09-07T00:01:24;18.30;99.90
5258;DHT22;2651;51.594;9.928;2023-09-07T00:02:26;18.30;99.90
5258;DHT22;2651;51.594;9.928;2023-09-07T00:03:40;18.30;99.90
5258;DHT22;2651;51.594;9.928;2023-09-07T00:04:43;18.20;99.90
5258;DHT22;2651;51.594;9.928;2023-09-07T00:05:45;18.20;99.90
5258;DHT22;2651;51.594;9.928;2023-09-07T00:06:47;18.20;99.90
5258;DHT22;2651;51.594;9.928;2023-09-07T00:07:49;18.20;99.90
5258;DHT22;2651;51.594;9.928;2023-09-07T00:08:50;18.10;99.90
5258;DHT22;2651;51.594;9.928;2023-09-07T00:09:52;18.10;99.90
5258;DHT22;2651;51.594;9.928;2023-09-07T00:10:54;18.10;99.90
5258;DHT22;2651;51.594;9.928;2023-09-07T00:11:55;18.00;99.90
5258;DHT22;2651;51.594;9.928;2023-09-07T00:12:57;18.00;99.90
5258;DHT22;2651;51.594;9.928;2023-09-07T00:13:59;18.00;99.90
5258;DHT22;2651;51.594;9.928;2023-09-07T00:15:01;18.00;1.00
5258;DHT22;2651;51.594;9.928;2023-09-07T00:16:03;18.00;1.00
5258;DHT22;2651;51.594;9.928;2023-09-07T00:17:06;18.00;1.00
5258;DHT22;2651;51.594;9.928;2023-09-07T00:18:08;17.90;99.90
5258;DHT22;2651;51.594;9.928;2023-09-07T00:19:09;17.90;1.00
5258;DHT22;2651;51.594;9.928;2023-09-07T00:20:11;18.00;1.00
5258;DHT22;2651;51.594;9.928;2023-09-07T00:21:15;17.90;1.00
5258;DHT22;2651;51.594;9.928;2023-09-07T00:22:18;17.80;99.90
5258;DHT22;2651;51.594;9.928;2023-09-07T00:23:20;17.80;1.00
5258;DHT22;2651;51.594;9.928;2023-09-07T00:24:22;17.80;1.00
5258;DHT22;2651;51.594;9.928;2023-09-07T00:25:24;17.80;1.00
5258;DHT22;2651;51.594;9.928;2023-09-07T00:26:26;17.80;1.00
5258;DHT22;2651;51.594;9.928;2023-09-07T00:27:28;17.70;1.00
5258;DHT22;2651;51.594;9.928;2023-09-07T00:28:29;17.70;1.00
5258;DHT22;2651;51.594;9.928;2023-09-07T00:29:32;17.70;1.00
5258;DHT22;2651;51.594;9.928;2023-09-07T00:30:33;17.60;1.00
5258;DHT22;2651;51.594;9.928;2023-09-07T00:31:35;17.60;1.00
5258;DHT22;2651;51.594;9.928;2023-09-07T00:32:38;17.50;1.00
5258;DHT22;2651;51.594;9.928;2023-09-07T00:33:39;17.50;1.00
5258;DHT22;2651;51.594;9.928;2023-09-07T00:34:41;17.50;1.00
5258;DHT22;2651;51.594;9.928;2023-09-07T00:35:43;17.40;73.70
5258;DHT22;2651;51.594;9.928;2023-09-07T00:36:44;17.40;99.90
5258;DHT22;2651;51.594;9.928;2023-09-07T00:37:46;17.50;99.90
5258;DHT22;2651;51.594;9.928;2023-09-07T00:38:48;17.60;99.90
5258;DHT22;2651;51.594;9.928;2023-09-07T00:39:49;17.50;29.10
5258;DHT22;2651;51.594;9.928;2023-09-07T00:40:51;17.50;99.90
5258;DHT22;2651;51.594;9.928;2023-09-07T00:41:53;17.50;99.90
5258;DHT22;2651;51.594;9.928;2023-09-07T00:42:56;17.60;99.90
5258;DHT22;2651;51.594;9.928;2023-09-07T00:43:58;17.50;99.90
5258;DHT22;2651;51.594;9.928;2023-09-07T00:45:00;17.50;99.90
5258;DHT22;2651;51.594;9.928;2023-09-07T00:46:02;17.50;99.90
5258;DHT22;2651;51.594;9.928;2023-09-07T00:47:03;17.50;99.90
5258;DHT22;2651;51.594;9.928;2023-09-07T00:48:07;17.50;99.90
5258;DHT22;2651;51.594;9.928;2023-09-07T00:49:09;17.50;99.90
5258;DHT22;2651;51.594;9.928;2023-09-07T00:50:10;17.50;99.90
5258;DHT22;2651;51.594;9.928;2023-09-07T00:51:15;17.50;99.90
5258;DHT22;2651;51.594;9.928;2023-09-07T00:52:17;17.60;99.90
5258;DHT22;2651;51.594;9.928;2023-09-07T00:53:20;17.50;99.90
5258;DHT22;2651;51.594;9.928;2023-09-07T00:54:21;17.60;99.90
5258;DHT22;2651;51.594;9.928;2023-09-07T00:55:23;17.60;99.90
5258;DHT22;2651;51.594;9.928;2023-09-07T00:56:28;17.50;99.90
5258;DHT22;2651;51.594;9.928;2023-09-07T00:57:30;17.50;99.90
5258;DHT22;2651;51.594;9.928;2023-09-07T00:58:32;17.50;99.90
5258;DHT22;2651;51.594;9.928;2023-09-07T00:59:34;17.50;99.90
5258;DHT22;2651;51.594;9.928;2023-09-07T01:00:36;17.50;99.90
5258;DHT22;2651;51.594;9.928;2023-09-07T01:01:38;17.50;99.90
5258;DHT22;2651;51.594;9.928;2023-09-07T01:02:40;17.50;99.90
5258;DHT22;2651;51.594;9.928;2023-09-07T01:03:43;17.40;1.00
5258;DHT22;2651;51.594;9.928;2023-09-07T01:04:45;17.30;99.90
5258;DHT22;2651;51.594;9.928;2023-09-07T01:07:02;17.30;99.90
5258;DHT22;2651;51.594;9.928;2023-09-07T01:07:46;17.30;99.90
5258;DHT22;2651;51.594;9.928;2023-09-07T01:08:51;17.30;99.90
5258;DHT22;2651;51.594;9.928;2023-09-07T01:09:59;17.30;99.90
5258;DHT22;2651;51.594;9.928;2023-09-07T01:11:01;17.30;99.90
5258;DHT22;2651;51.594;9.928;2023-09-07T01:12:02;17.20;99.90
5258;DHT22;2651;51.594;9.928;2023-09-07T01:13:05;17.10;99.90
5258;DHT22;2651;51.594;9.928;2023-09-07T01:14:06;17.10;1.00
5258;DHT22;2651;51.594;9.928;2023-09-07T01:15:08;17.10;1.00
5258;DHT22;2651;51.594;9.928;2023-09-07T01:16:12;17.10;1.00
5258;DHT22;2651;51.594;9.928;2023-09-07T01:17:14;17.00;1.00
5258;DHT22;2651;51.594;9.928;2023-09-07T01:18:17;17.10;1.00
5258;DHT22;2651;51.594;9.928;2023-09-07T01:19:39;17.10;1.00
5258;DHT22;2651;51.594;9.928;2023-09-07T01:20:42;17.00;1.00
5258;DHT22;2651;51.594;9.928;2023-09-07T01:21:45;17.10;1.00
5258;DHT22;2651;51.594;9.928;2023-09-07T01:22:47;17.10;1.00
5258;DHT22;2651;51.594;9.928;2023-09-07T01:23:50;17.10;1.00
5258;DHT22;2651;51.594;9.928;2023-09-07T01:24:53;17.10;1.00
5258;DHT22;2651;51.594;9.928;2023-09-07T01:25:55;17.10;1.00
5258;DHT22;2651;51.594;9.928;2023-09-07T01:26:58;17.10;1.00
5258;DHT22;2651;51.594;9.928;2023-09-07T01:28:00;17.10;1.00
5258;DHT22;2651;51.594;9.928;2023-09-07T01:29:02;17.10;1.00
5258;DHT22;2651;51.594;9.928;2023-09-07T01:30:04;17.10;1.00
5258;DHT22;2651;51.594;9.928;2023-09-07T01:31:06;17.10;1.00
5258;DHT22;2651;51.594;9.928;2023-09-07T01:32:08;17.10;1.00
5258;DHT22;2651;51.594;9.928;2023-09-07T01:33:11;17.10;1.00
5258;DHT22;2651;51.594;9.928;2023-09-07T01:34:13;17.10;1.00
5258;DHT22;2651;51.594;9.928;2023-09-07T01:35:16;17.10;1.00
5258;DHT22;2651;51.594;9.928;2023-09-07T01:36:20;17.10;1.00
5258;DHT22;2651;51.594;9.928;2023-09-07T01:37:21;17.00;1.00
5258;DHT22;2651;51.594;9.928;2023-09-07T01:38:23;17.00;1.00
5258;DHT22;2651;51.594;9.928;2023-09-07T01:39:25;16.90;82.50
5258;DHT22;2651;51.594;9.928;2023-09-07T01:40:28;17.00;99.90
5258;DHT22;2651;51.594;9.928;2023-09-07T01:41:30;17.00;99.90
5258;DHT22;2651;51.594;9.928;2023-09-07T01:42:32;17.00;99.90
5258;DHT22;2651;51.594;9.928;2023-09-07T01:43:35;17.00;99.90
5258;DHT22;2651;51.594;9.928;2023-09-07T01:44:37;17.00;99.90
5258;DHT22;2651;51.594;9.928;2023-09-07T01:45:39;16.90;34.80
5258;DHT22;2651;51.594;9.928;2023-09-07T01:46:41;16.90;99.90
5258;DHT22;2651;51.594;9.928;2023-09-07T01:47:43;16.90;99.90
5258;DHT22;2651;51.594;9.928;2023-09-07T01:48:45;17.00;99.90
5258;DHT22;2651;51.594;9.928;2023-09-07T01:49:47;16.90;99.90
5258;DHT22;2651;51.594;9.928;2023-09-07T01:50:52;16.90;1.00
5258;DHT22;2651;51.594;9.928;2023-09-07T01:51:55;16.80;99.90
5258;DHT22;2651;51.594;9.928;2023-09-07T01:52:56;16.80;99.90
5258;DHT22;2651;51.594;9.928;2023-09-07T01:53:58;16.80;99.90
5258;DHT22;2651;51.594;9.928;2023-09-07T01:55:00;16.70;99.90
5258;DHT22;2651;51.594;9.928;2023-09-07T01:56:01;16.70;99.90
5258;DHT22;2651;51.594;9.928;2023-09-07T01:57:03;16.70;99.90
5258;DHT22;2651;51.594;9.928;2023-09-07T01:58:05;16.60;99.90
5258;DHT22;2651;51.594;9.928;2023-09-07T01:59:07;16.70;1.00
5258;DHT22;2651;51.594;9.928;2023-09-07T02:00:11;16.70;1.00
5258;DHT22;2651;51.594;9.928;2023-09-07T02:01:22;16.70;1.00
5258;DHT22;2651;51.594;9.928;2023-09-07T02:02:24;16.70;1.00
5258;DHT22;2651;51.594;9.928;2023-09-07T02:03:26;16.70;1.00
5258;DHT22;2651;51.594;9.928;2023-09-07T02:04:28;16.70;1.00
5258;DHT22;2651;51.594;9.928;2023-09-07T02:05:30;16.70;1.00
5258;DHT22;2651;51.594;9.928;2023-09-07T02:06:33;16.70;1.00
5258;DHT22;2651;51.594;9.928;2023-09-07T02:07:35;16.70;1.00
5258;DHT22;2651;51.594;9.928;2023-09-07T02:08:37;16.80;1.00
5258;DHT22;2651;51.594;9.928;2023-09-07T02:09:38;16.70;1.00
5258;DHT22;2651;51.594;9.928;2023-09-07T02:10:40;16.70;1.00
5258;DHT22;2651;51.594;9.928;2023-09-07T02:11:42;16.70;1.00
5258;DHT22;2651;51.594;9.928;2023-09-07T02:12:45;16.60;99.90
5258;DHT22;2651;51.594;9.928;2023-09-07T02:13:48;16.60;99.90
5258;DHT22;2651;51.594;9.928;2023-09-07T02:14:50;16.50;99.90
5258;DHT22;2651;51.594;9.928;2023-09-07T02:15:51;16.50;99.90
5258;DHT22;2651;51.594;9.928;2023-09-07T02:16:53;16.40;1.00
5258;DHT22;2651;51.594;9.928;2023-09-07T02:17:55;16.30;1.00
5258;DHT22;2651;51.594;9.928;2023-09-07T02:19:04;16.30;99.90
5258;DHT22;2651;51.594;9.928;2023-09-07T02:20:06;16.20;99.90
5258;DHT22;2651;51.594;9.928;2023-09-07T02:21:13;16.20;1.00
5258;DHT22;2651;51.594;9.928;2023-09-07T02:22:14;16.30;67.00
5258;DHT22;2651;51.594;9.928;2023-09-07T02:23:16;16.30;99.90
5258;DHT22;2651;51.594;9.928;2023-09-07T02:24:18;16.40;1.00
5258;DHT22;2651;51.594;9.928;2023-09-07T02:25:19;16.40;1.00
5258;DHT22;2651;51.594;9.928;2023-09-07T02:26:21;16.40;1.00
5258;DHT22;2651;51.594;9.928;2023-09-07T02:27:23;16.40;1.00
5258;DHT22;2651;51.594;9.928;2023-09-07T02:28:25;16.40;1.00
5258;DHT22;2651;51.594;9.928;2023-09-07T02:29:27;16.40;1.00
5258;DHT22;2651;51.594;9.928;2023-09-07T02:30:29;16.40;1.00
5258;DHT22;2651;51.594;9.928;2023-09-07T02:31:30;16.40;64.80
5258;DHT22;2651;51.594;9.928;2023-09-07T02:32:33;16.30;99.90
5258;DHT22;2651;51.594;9.928;2023-09-07T02:33:35;16.30;1.00
5258;DHT22;2651;51.594;9.928;2023-09-07T02:34:37;16.30;1.00
5258;DHT22;2651;51.594;9.928;2023-09-07T02:35:38;16.40;1.00
5258;DHT22;2651;51.594;9.928;2023-09-07T02:36:40;16.40;1.00
5258;DHT22;2651;51.594;9.928;2023-09-07T02:37:42;16.40;1.00
5258;DHT22;2651;51.594;9.928;2023-09-07T02:38:43;16.30;1.00
5258;DHT22;2651;51.594;9.928;2023-09-07T02:39:45;16.20;1.00
5258;DHT22;2651;51.594;9.928;2023-09-07T02:40:47;16.20;1.00
5258;DHT22;2651;51.594;9.928;2023-09-07T02:41:49;16.30;1.00
5258;DHT22;2651;51.594;9.928;2023-09-07T02:42:51;16.20;1.00
5258;DHT22;2651;51.594;9.928;2023-09-07T02:43:53;16.20;1.00
5258;DHT22;2651;51.594;9.928;2023-09-07T02:44:54;16.20;1.00
5258;DHT22;2651;51.594;9.928;2023-09-07T02:45:56;16.20;1.00
5258;DHT22;2651;51.594;9.928;2023-09-07T02:46:58;16.20;99.90
5258;DHT22;2651;51.594;9.928;2023-09-07T02:47:59;16.20;99.90
5258;DHT22;2651;51.594;9.928;2023-09-07T02:49:01;16.20;1.00
5258;DHT22;2651;51.594;9.928;2023-09-07T02:50:03;16.10;1.00
5258;DHT22;2651;51.594;9.928;2023-09-07T02:51:05;16.10;1.00
5258;DHT22;2651;51.594;9.928;2023-09-07T02:52:07;16.00;1.00
5258;DHT22;2651;51.594;9.928;2023-09-07T02:53:09;16.00;1.00
5258;DHT22;2651;51.594;9.928;2023-09-07T02:54:10;16.00;1.00
5258;DHT22;2651;51.594;9.928;2023-09-07T02:55:12;16.00;1.00
5258;DHT22;2651;51.594;9.928;2023-09-07T02:56:14;15.90;99.90
5258;DHT22;2651;51.594;9.928;2023-09-07T02:57:15;16.00;99.90
5258;DHT22;2651;51.594;9.928;2023-09-07T02:58:17;15.90;99.90
5258;DHT22;2651;51.594;9.928;2023-09-07T02:59:19;15.90;99.90
5258;DHT22;2651;51.594;9.928;2023-09-07T03:00:21;15.90;99.90
5258;DHT22;2651;51.594;9.928;2023-09-07T03:01:24;15.90;99.90
5258;DHT22;2651;51.594;9.928;2023-09-07T03:02:27;15.90;99.90
5258;DHT22;2651;51.594;9.928;2023-09-07T03:03:29;15.80;99.90
5258;DHT22;2651;51.594;9.928;2023-09-07T03:04:31;15.80;99.90
5258;DHT22;2651;51.594;9.928;2023-09-07T03:05:33;15.80;99.90
5258;DHT22;2651;51.594;9.928;2023-09-07T03:06:34;15.80;1.00
5258;DHT22;2651;51.594;9.928;2023-09-07T03:07:37;15.80;1.00
5258;DHT22;2651;51.594;9.928;2023-09-07T03:08:40;15.70;99.90
5258;DHT22;2651;51.594;9.928;2023-09-07T03:09:42;15.70;1.00
5258;DHT22;2651;51.594;9.928;2023-09-07T03:10:45;15.70;99.90
5258;DHT22;2651;51.594;9.928;2023-09-07T03:11:47;15.70;1.00
5258;DHT22;2651;51.594;9.928;2023-09-07T03:12:49;15.70;43.10
5258;DHT22;2651;51.594;9.928;2023-09-07T03:13:51;15.70;99.90
5258;DHT22;2651;51.594;9.928;2023-09-07T03:14:54;15.70;1.00
5258;DHT22;2651;51.594;9.928;2023-09-07T03:15:56;15.70;94.10
5258;DHT22;2651;51.594;9.928;2023-09-07T03:16:57;15.70;1.00
5258;DHT22;2651;51.594;9.928;2023-09-07T03:18:00;15.70;99.90
5258;DHT22;2651;51.594;9.928;2023-09-07T03:19:02;15.70;18.10
5258;DHT22;2651;51.594;9.928;2023-09-07T03:20:05;15.60;1.00
5258;DHT22;2651;51.594;9.928;2023-09-07T03:21:25;15.60;1.00
5258;DHT22;2651;51.594;9.928;2023-09-07T03:22:30;15.60;99.90
5258;DHT22;2651;51.594;9.928;2023-09-07T03:23:33;15.60;1.00
5258;DHT22;2651;51.594;9.928;2023-09-07T03:24:35;15.60;99.90
5258;DHT22;2651;51.594;9.928;2023-09-07T03:25:37;15.60;1.00
5258;DHT22;2651;51.594;9.928;2023-09-07T03:26:38;15.60;1.00
5258;DHT22;2651;51.594;9.928;2023-09-07T03:27:40;15.60;99.90
5258;DHT22;2651;51.594;9.928;2023-09-07T03:28:42;15.60;1.00
5258;DHT22;2651;51.594;9.928;2023-09-07T03:29:44;15.60;99.90
5258;DHT22;2651;51.594;9.928;2023-09-07T03:30:46;15.60;99.90
5258;DHT22;2651;51.594;9.928;2023-09-07T03:31:48;15.60;1.00
5258;DHT22;2651;51.594;9.928;2023-09-07T03:32:50;15.60;1.00
5258;DHT22;2651;51.594;9.928;2023-09-07T03:33:52;15.60;1.00
5258;DHT22;2651;51.594;9.928;2023-09-07T03:34:54;15.60;1.00
5258;DHT22;2651;51.594;9.928;2023-09-07T03:35:56;15.60;1.00
5258;DHT22;2651;51.594;9.928;2023-09-07T03:37:00;15.50;99.90
5258;DHT22;2651;51.594;9.928;2023-09-07T03:39:04;15.40;1.00
5258;DHT22;2651;51.594;9.928;2023-09-07T03:40:09;15.40;1.00
5258;DHT22;2651;51.594;9.928;2023-09-07T03:41:11;15.40;99.90
5258;DHT22;2651;51.594;9.928;2023-09-07T03:42:13;15.30;99.90
5258;DHT22;2651;51.594;9.928;2023-09-07T03:43:14;15.40;1.00
5258;DHT22;2651;51.594;9.928;2023-09-07T03:44:16;15.40;99.90
5258;DHT22;2651;51.594;9.928;2023-09-07T03:45:18;15.40;99.90
5258;DHT22;2651;51.594;9.928;2023-09-07T03:46:20;15.40;99.90
5258;DHT22;2651;51.594;9.928;2023-09-07T03:47:22;15.40;1.00
5258;DHT22;2651;51.594;9.928;2023-09-07T03:48:23;15.40;1.00
5258;DHT22;2651;51.594;9.928;2023-09-07T03:49:25;15.40;1.00
5258;DHT22;2651;51.594;9.928;2023-09-07T03:50:28;15.40;1.00
5258;DHT22;2651;51.594;9.928;2023-09-07T03:51:30;15.40;1.00
5258;DHT22;2651;51.594;9.928;2023-09-07T03:52:32;15.30;1.00
5258;DHT22;2651;51.594;9.928;2023-09-07T03:53:33;15.30;1.00
5258;DHT22;2651;51.594;9.928;2023-09-07T03:54:35;15.20;1.00
5258;DHT22;2651;51.594;9.928;2023-09-07T03:55:41;15.30;1.00
5258;DHT22;2651;51.594;9.928;2023-09-07T03:56:43;15.30;1.00
5258;DHT22;2651;51.594;9.928;2023-09-07T03:57:45;15.30;1.00
5258;DHT22;2651;51.594;9.928;2023-09-07T03:58:46;15.30;1.00
5258;DHT22;2651;51.594;9.928;2023-09-07T03:59:49;15.30;1.00
5258;DHT22;2651;51.594;9.928;2023-09-07T04:00:50;15.30;1.00
5258;DHT22;2651;51.594;9.928;2023-09-07T04:01:52;15.20;1.00
5258;DHT22;2651;51.594;9.928;2023-09-07T04:02:56;15.20;24.80
5258;DHT22;2651;51.594;9.928;2023-09-07T04:03:58;15.20;89.50
5258;DHT22;2651;51.594;9.928;2023-09-07T04:05:00;15.20;99.90
5258;DHT22;2651;51.594;9.928;2023-09-07T04:06:06;15.20;99.90
5258;DHT22;2651;51.594;9.928;2023-09-07T04:07:08;15.10;99.90
5258;DHT22;2651;51.594;9.928;2023-09-07T04:08:10;15.10;99.90
5258;DHT22;2651;51.594;9.928;2023-09-07T04:09:12;15.10;99.90
5258;DHT22;2651;51.594;9.928;2023-09-07T04:10:13;15.20;99.90
5258;DHT22;2651;51.594;9.928;2023-09-07T04:11:15;15.20;99.90
5258;DHT22;2651;51.594;9.928;2023-09-07T04:12:17;15.20;99.90
5258;DHT22;2651;51.594;9.928;2023-09-07T04:13:20;15.20;99.90
5258;DHT22;2651;51.594;9.928;2023-09-07T04:14:22;15.30;99.90
5258;DHT22;2651;51.594;9.928;2023-09-07T04:15:23;15.20;99.90
5258;DHT22;2651;51.594;9.928;2023-09-07T04:16:27;15.20;99.90
5258;DHT22;2651;51.594;9.928;2023-09-07T04:17:28;15.20;99.90
5258;DHT22;2651;51.594;9.928;2023-09-07T04:18:30;15.20;99.90
5258;DHT22;2651;51.594;9.928;2023-09-07T04:19:32;15.30;99.90
5258;DHT22;2651;51.594;9.928;2023-09-07T04:20:34;15.30;99.90
5258;DHT22;2651;51.594;9.928;2023-09-07T04:21:37;15.30;99.90
5258;DHT22;2651;51.594;9.928;2023-09-07T04:22:40;15.30;99.90
5258;DHT22;2651;51.594;9.928;2023-09-07T04:23:42;15.30;99.90
5258;DHT22;2651;51.594;9.928;2023-09-07T04:24:47;15.30;99.90
5258;DHT22;2651;51.594;9.928;2023-09-07T04:25:50;15.30;99.90
5258;DHT22;2651;51.594;9.928;2023-09-07T04:26:52;15.40;99.90
5258;DHT22;2651;51.594;9.928;2023-09-07T04:27:53;15.30;96.80
5258;DHT22;2651;51.594;9.928;2023-09-07T04:28:55;15.30;60.10
5258;DHT22;2651;51.594;9.928;2023-09-07T04:29:57;15.40;26.40
5258;DHT22;2651;51.594;9.928;2023-09-07T04:30:59;15.30;1.00
5258;DHT22;2651;51.594;9.928;2023-09-07T04:32:01;15.30;1.00
5258;DHT22;2651;51.594;9.928;2023-09-07T04:33:03;15.30;1.00
5258;DHT22;2651;51.594;9.928;2023-09-07T04:34:05;15.30;1.00
5258;DHT22;2651;51.594;9.928;2023-09-07T04:35:07;15.30;1.00
5258;DHT22;2651;51.594;9.928;2023-09-07T04:36:10;15.30;1.00
5258;DHT22;2651;51.594;9.928;2023-09-07T04:37:12;15.30;99.90
5258;DHT22;2651;51.594;9.928;2023-09-07T04:38:14;15.20;99.90
5258;DHT22;2651;51.594;9.928;2023-09-07T04:39:15;15.20;1.00
5258;DHT22;2651;51.594;9.928;2023-09-07T04:40:17;15.20;99.90
5258;DHT22;2651;51.594;9.928;2023-09-07T04:41:19;15.20;1.00
5258;DHT22;2651;51.594;9.928;2023-09-07T04:42:21;15.20;1.00
5258;DHT22;2651;51.594;9.928;2023-09-07T04:43:23;15.10;1.00
5258;DHT22;2651;51.594;9.928;2023-09-07T04:44:26;15.10;1.00
5258;DHT22;2651;51.594;9.928;2023-09-07T04:45:29;15.10;1.00
5258;DHT22;2651;51.594;9.928;2023-09-07T04:46:30;15.10;1.00
5258;DHT22;2651;51.594;9.928;2023-09-07T04:47:32;15.10;1.00
5258;DHT22;2651;51.594;9.928;2023-09-07T04:48:34;15.00;1.00
5258;DHT22;2651;51.594;9.928;2023-09-07T04:49:36;15.00;1.00
5258;DHT22;2651;51.594;9.928;2023-09-07T04:50:37;15.10;1.00
5258;DHT22;2651;51.594;9.928;2023-09-07T04:51:39;15.00;1.00
5258;DHT22;2651;51.594;9.928;2023-09-07T04:52:41;15.10;1.00
5258;DHT22;2651;51.594;9.928;2023-09-07T04:53:42;15.00;1.00
5258;DHT22;2651;51.594;9.928;2023-09-07T04:54:44;15.10;1.00
5258;DHT22;2651;51.594;9.928;2023-09-07T04:55:46;15.10;1.00
5258;DHT22;2651;51.594;9.928;2023-09-07T04:56:48;15.10;1.00
5258;DHT22;2651;51.594;9.928;2023-09-07T04:57:50;15.10;1.00
5258;DHT22;2651;51.594;9.928;2023-09-07T04:58:51;15.10;1.00
5258;DHT22;2651;51.594;9.928;2023-09-07T04:59:53;15.10;99.90
5258;DHT22;2651;51.594;9.928;2023-09-07T05:01:04;15.00;1.00
5258;DHT22;2651;51.594;9.928;2023-09-07T05:02:06;15.00;99.90
5258;DHT22;2651;51.594;9.928;2023-09-07T05:03:08;14.90;1.00
5258;DHT22;2651;51.594;9.928;2023-09-07T05:04:10;14.90;1.00
5258;DHT22;2651;51.594;9.928;2023-09-07T05:05:11;14.90;1.00
5258;DHT22;2651;51.594;9.928;2023-09-07T05:06:13;14.80;1.00
5258;DHT22;2651;51.594;9.928;2023-09-07T05:07:15;14.90;1.00
5258;DHT22;2651;51.594;9.928;2023-09-07T05:08:17;14.80;1.00
5258;DHT22;2651;51.594;9.928;2023-09-07T05:09:23;14.80;1.00
5258;DHT22;2651;51.594;9.928;2023-09-07T05:10:27;14.90;1.00
5258;DHT22;2651;51.594;9.928;2023-09-07T05:11:28;14.90;1.00
5258;DHT22;2651;51.594;9.928;2023-09-07T05:12:30;14.90;1.00
5258;DHT22;2651;51.594;9.928;2023-09-07T05:13:32;14.90;1.00
5258;DHT22;2651;51.594;9.928;2023-09-07T05:14:33;15.00;1.00
5258;DHT22;2651;51.594;9.928;2023-09-07T05:15:35;15.00;1.00
5258;DHT22;2651;51.594;9.928;2023-09-07T05:16:37;15.00;1.00
5258;DHT22;2651;51.594;9.928;2023-09-07T05:17:39;15.00;1.00
5258;DHT22;2651;51.594;9.928;2023-09-07T05:18:41;15.00;1.00
5258;DHT22;2651;51.594;9.928;2023-09-07T05:19:44;15.10;1.00
5258;DHT22;2651;51.594;9.928;2023-09-07T05:20:46;15.00;1.00
5258;DHT22;2651;51.594;9.928;2023-09-07T05:21:50;15.00;1.00
5258;DHT22;2651;51.594;9.928;2023-09-07T05:22:52;14.90;99.90
5258;DHT22;2651;51.594;9.928;2023-09-07T05:23:54;14.90;1.00
5258;DHT22;2651;51.594;9.928;2023-09-07T05:24:56;14.90;1.00
5258;DHT22;2651;51.594;9.928;2023-09-07T05:25:59;14.80;1.00
5258;DHT22;2651;51.594;9.928;2023-09-07T05:27:00;14.80;1.00
5258;DHT22;2651;51.594;9.928;2023-09-07T05:28:05;14.80;1.00
5258;DHT22;2651;51.594;9.928;2023-09-07T05:29:06;14.80;1.00
5258;DHT22;2651;51.594;9.928;2023-09-07T05:30:08;14.90;1.00
5258;DHT22;2651;51.594;9.928;2023-09-07T05:31:10;14.90;1.00
5258;DHT22;2651;51.594;9.928;2023-09-07T05:32:13;15.00;1.00
5258;DHT22;2651;51.594;9.928;2023-09-07T05:33:16;15.00;1.00
5258;DHT22;2651;51.594;9.928;2023-09-07T05:34:18;15.00;1.00
5258;DHT22;2651;51.594;9.928;2023-09-07T05:35:20;15.10;1.00
5258;DHT22;2651;51.594;9.928;2023-09-07T05:36:22;15.10;1.00
5258;DHT22;2651;51.594;9.928;2023-09-07T05:37:24;15.10;1.00
5258;DHT22;2651;51.594;9.928;2023-09-07T05:38:25;15.10;1.00
5258;DHT22;2651;51.594;9.928;2023-09-07T05:39:27;15.10;1.00
5258;DHT22;2651;51.594;9.928;2023-09-07T05:40:29;15.00;1.00
5258;DHT22;2651;51.594;9.928;2023-09-07T05:41:30;15.00;1.00
5258;DHT22;2651;51.594;9.928;2023-09-07T05:42:32;15.00;1.00
5258;DHT22;2651;51.594;9.928;2023-09-07T05:43:34;15.10;1.00
5258;DHT22;2651;51.594;9.928;2023-09-07T05:44:36;15.10;1.00
5258;DHT22;2651;51.594;9.928;2023-09-07T05:45:40;15.10;1.00
5258;DHT22;2651;51.594;9.928;2023-09-07T05:46:42;15.20;1.00
5258;DHT22;2651;51.594;9.928;2023-09-07T05:47:44;15.20;1.00
5258;DHT22;2651;51.594;9.928;2023-09-07T05:48:46;15.20;1.00
5258;DHT22;2651;51.594;9.928;2023-09-07T05:49:47;15.30;1.00
5258;DHT22;2651;51.594;9.928;2023-09-07T05:50:49;15.30;1.00
5258;DHT22;2651;51.594;9.928;2023-09-07T05:51:51;15.30;1.00
5258;DHT22;2651;51.594;9.928;2023-09-07T05:52:52;15.30;1.00
5258;DHT22;2651;51.594;9.928;2023-09-07T05:53:54;15.30;1.00
5258;DHT22;2651;51.594;9.928;2023-09-07T05:54:57;15.40;1.00
5258;DHT22;2651;51.594;9.928;2023-09-07T05:55:58;15.40;1.00
5258;DHT22;2651;51.594;9.928;2023-09-07T05:57:00;15.50;1.00
5258;DHT22;2651;51.594;9.928;2023-09-07T05:58:06;15.50;1.00
5258;DHT22;2651;51.594;9.928;2023-09-07T05:59:08;15.50;1.00
5258;DHT22;2651;51.594;9.928;2023-09-07T06:00:10;15.60;1.00
5258;DHT22;2651;51.594;9.928;2023-09-07T06:01:12;15.60;1.00
5258;DHT22;2651;51.594;9.928;2023-09-07T06:02:14;15.60;1.00
5258;DHT22;2651;51.594;9.928;2023-09-07T06:03:16;15.60;1.00
5258;DHT22;2651;51.594;9.928;2023-09-07T06:04:18;15.60;1.00
5258;DHT22;2651;51.594;9.928;2023-09-07T06:05:20;15.70;1.00
5258;DHT22;2651;51.594;9.928;2023-09-07T06:06:22;15.70;1.00
5258;DHT22;2651;51.594;9.928;2023-09-07T06:07:23;15.70;1.00
5258;DHT22;2651;51.594;9.928;2023-09-07T06:08:25;15.70;1.00
5258;DHT22;2651;51.594;9.928;2023-09-07T06:09:28;15.80;1.00
5258;DHT22;2651;51.594;9.928;2023-09-07T06:10:31;15.80;1.00
5258;DHT22;2651;51.594;9.928;2023-09-07T06:11:32;15.80;1.00
5258;DHT22;2651;51.594;9.928;2023-09-07T06:12:37;15.80;1.00
5258;DHT22;2651;51.594;9.928;2023-09-07T06:13:39;15.90;1.00
5258;DHT22;2651;51.594;9.928;2023-09-07T06:14:40;15.90;99.90
5258;DHT22;2651;51.594;9.928;2023-09-07T06:15:42;15.90;1.00
5258;DHT22;2651;51.594;9.928;2023-09-07T06:16:44;15.90;99.90
5258;DHT22;2651;51.594;9.928;2023-09-07T06:17:46;15.90;1.00
5258;DHT22;2651;51.594;9.928;2023-09-07T06:18:47;15.90;99.90
5258;DHT22;2651;51.594;9.928;2023-09-07T06:19:49;15.90;99.90
5258;DHT22;2651;51.594;9.928;2023-09-07T06:20:51;15.90;1.00
5258;DHT22;2651;51.594;9.928;2023-09-07T06:21:52;15.90;1.00
5258;DHT22;2651;51.594;9.928;2023-09-07T06:22:54;15.90;99.90
5258;DHT22;2651;51.594;9.928;2023-09-07T06:23:56;15.90;1.00
5258;DHT22;2651;51.594;9.928;2023-09-07T06:24:58;15.90;1.00
5258;DHT22;2651;51.594;9.928;2023-09-07T06:26:00;15.90;1.00
5258;DHT22;2651;51.594;9.928;2023-09-07T06:27:02;15.90;1.00
5258;DHT22;2651;51.594;9.928;2023-09-07T06:28:04;16.00;1.00
5258;DHT22;2651;51.594;9.928;2023-09-07T06:29:06;15.90;1.00
5258;DHT22;2651;51.594;9.928;2023-09-07T06:30:08;16.00;1.00
5258;DHT22;2651;51.594;9.928;2023-09-07T06:31:11;16.00;15.90
5258;DHT22;2651;51.594;9.928;2023-09-07T06:32:13;16.00;1.00
5258;DHT22;2651;51.594;9.928;2023-09-07T06:33:14;16.10;5.50
5258;DHT22;2651;51.594;9.928;2023-09-07T06:34:16;16.10;1.00
5258;DHT22;2651;51.594;9.928;2023-09-07T06:35:18;16.10;1.00
5258;DHT22;2651;51.594;9.928;2023-09-07T06:36:20;16.10;1.00
5258;DHT22;2651;51.594;9.928;2023-09-07T06:37:38;16.20;1.00
5258;DHT22;2651;51.594;9.928;2023-09-07T06:38:42;16.20;1.00
5258;DHT22;2651;51.594;9.928;2023-09-07T06:39:44;16.20;1.00
5258;DHT22;2651;51.594;9.928;2023-09-07T06:40:49;16.30;1.00
5258;DHT22;2651;51.594;9.928;2023-09-07T06:41:51;16.30;99.90
5258;DHT22;2651;51.594;9.928;2023-09-07T06:42:53;16.30;99.90
5258;DHT22;2651;51.594;9.928;2023-09-07T06:43:55;16.40;1.00
5258;DHT22;2651;51.594;9.928;2023-09-07T06:44:57;16.40;1.00
5258;DHT22;2651;51.594;9.928;2023-09-07T06:46:08;16.40;99.90
5258;DHT22;2651;51.594;9.928;2023-09-07T06:47:10;16.50;1.00
5258;DHT22;2651;51.594;9.928;2023-09-07T06:48:12;16.50;1.00
5258;DHT22;2651;51.594;9.928;2023-09-07T06:49:14;16.50;1.00
5258;DHT22;2651;51.594;9.928;2023-09-07T06:50:16;16.60;1.00
5258;DHT22;2651;51.594;9.928;2023-09-07T06:51:17;16.60;99.90
5258;DHT22;2651;51.594;9.928;2023-09-07T06:52:19;16.60;1.00
5258;DHT22;2651;51.594;9.928;2023-09-07T06:53:21;16.60;1.00